Time;durP1;ratioP1;P1;durP2;ratioP2;P2;SDS_P1;SDS_P2;PMS_P1;PMS_P2;Temp;Humidity;BMP_temperature;BMP_pressure;BME280_temperature;BME280_humidity;BME280_pressure;Samples;Min_cycle;Max_cycle;Signal;HPM_P1;HPM_P2
2021/11/05 00:02:13;;;;;;;50.83;21.92;;;;;;;;;;4937440;28;20406;-61
2021/11/05 00:04:38;;;;;;;54.47;23.75;;;;;;;;;;4951275;28;20655;-62
2021/11/05 00:07:04;;;;;;;42.25;18.23;;;;;;;;;;4946254;28;20046;-61
2021/11/05 00:09:30;;;;;;;50.83;21.80;;;;;;;;;;4945043;28;20031;-63
2021/11/05 00:11:55;;;;;;;49.08;19.33;;;;;;;;;;4942205;28;20051;-63
2021/11/05 00:14:20;;;;;;;30.25;14.13;;;;;;;;;;4946207;28;20484;-61
2021/11/05 00:16:45;;;;;;;21.25;10.25;;;;;;;;;;4942284;28;20043;-63
2021/11/05 00:19:10;;;;;;;31.50;15.15;;;;;;;;;;4937632;28;20042;-63
2021/11/05 00:21:36;;;;;;;24.90;12.38;;;;;;;;;;4945537;28;20038;-62
2021/11/05 00:24:03;;;;;;;14.82;7.68;;;;;;;;;;4944537;29;20137;-62
2021/11/05 00:26:28;;;;;;;13.48;7.43;;;;;;;;;;4940181;28;20293;-62
2021/11/05 00:28:53;;;;;;;19.58;9.43;;;;;;;;;;4939048;28;20497;-63
2021/11/05 00:31:19;;;;;;;19.27;11.18;;;;;;;;;;4942446;28;20684;-62
2021/11/05 00:33:44;;;;;;;37.75;18.15;;;;;;;;;;4946296;28;20419;-62
2021/11/05 00:36:13;;;;;;;37.75;19.17;;;;;;;;;;4944060;28;20055;-62
2021/11/05 00:38:40;;;;;;;24.52;12.60;;;;;;;;;;4946232;28;20699;-63
2021/11/05 00:41:05;;;;;;;26.08;13.55;;;;;;;;;;4934743;28;20047;-63
2021/11/05 00:43:30;;;;;;;25.92;12.50;;;;;;;;;;4948962;28;20031;-62
2021/11/05 00:45:55;;;;;;;22.00;12.68;;;;;;;;;;4948128;28;20043;-63
2021/11/05 00:48:20;;;;;;;19.58;12.60;;;;;;;;;;4950869;28;20118;-62
2021/11/05 00:50:46;;;;;;;20.50;12.57;;;;;;;;;;4948708;28;20803;-62
2021/11/05 00:53:11;;;;;;;22.90;12.48;;;;;;;;;;4948945;28;20086;-62
2021/11/05 00:55:36;;;;;;;25.58;11.77;;;;;;;;;;4945261;28;20110;-62
2021/11/05 00:58:01;;;;;;;17.88;11.30;;;;;;;;;;4944663;29;20063;-62
2021/11/05 01:00:27;;;;;;;18.75;10.98;;;;;;;;;;4945756;28;20134;-61
2021/11/05 01:02:52;;;;;;;23.52;12.75;;;;;;;;;;4947683;28;20067;-62
2021/11/05 01:05:17;;;;;;;29.25;14.73;;;;;;;;;;4955601;28;20043;-61
2021/11/05 01:07:43;;;;;;;31.75;15.45;;;;;;;;;;4942571;28;20067;-61
2021/11/05 01:10:09;;;;;;;32.65;16.17;;;;;;;;;;4944028;28;20614;-61
2021/11/05 01:12:34;;;;;;;38.45;16.92;;;;;;;;;;4946407;28;20437;-61
2021/11/05 01:14:59;;;;;;;34.72;16.63;;;;;;;;;;4947134;28;20150;-61
2021/11/05 01:17:24;;;;;;;37.25;16.00;;;;;;;;;;4951953;28;20175;-61
2021/11/05 01:19:49;;;;;;;44.60;18.35;;;;;;;;;;4945110;28;20020;-61
2021/11/05 01:22:15;;;;;;;36.72;18.15;;;;;;;;;;4945554;28;20039;-61
2021/11/05 01:24:40;;;;;;;36.63;16.98;;;;;;;;;;4954637;28;20658;-61
2021/11/05 01:27:05;;;;;;;42.20;18.90;;;;;;;;;;4946768;28;20420;-61
2021/11/05 01:29:30;;;;;;;38.50;18.58;;;;;;;;;;4950568;29;20035;-61
2021/11/05 01:31:56;;;;;;;47.05;18.20;;;;;;;;;;4946219;28;20079;-61
2021/11/05 01:34:21;;;;;;;50.72;21.88;;;;;;;;;;4951246;28;20038;-61
2021/11/05 01:36:47;;;;;;;51.63;21.67;;;;;;;;;;4950346;28;20053;-61
2021/11/05 01:39:12;;;;;;;48.38;21.48;;;;;;;;;;4947651;28;20027;-60
2021/11/05 01:41:40;;;;;;;40.60;19.48;;;;;;;;;;4943052;28;20035;-61
2021/11/05 01:44:05;;;;;;;39.20;18.77;;;;;;;;;;4940422;29;20026;-61
2021/11/05 01:46:31;;;;;;;39.17;17.88;;;;;;;;;;4942793;28;20028;-61
2021/11/05 01:48:56;;;;;;;44.45;19.45;;;;;;;;;;4952108;28;20039;-61
2021/11/05 01:51:21;;;;;;;42.33;20.02;;;;;;;;;;4947498;28;20039;-60
2021/11/05 01:53:46;;;;;;;35.03;18.15;;;;;;;;;;4949281;28;20031;-61
2021/11/05 01:56:12;;;;;;;54.42;22.63;;;;;;;;;;4948482;28;20612;-60
2021/11/05 01:58:37;;;;;;;62.40;24.80;;;;;;;;;;4949052;29;20031;-62
2021/11/05 02:01:02;;;;;;;66.18;25.65;;;;;;;;;;4944565;28;20691;-60
2021/11/05 02:03:27;;;;;;;45.63;21.20;;;;;;;;;;4948949;28;21031;-60
2021/11/05 02:05:53;;;;;;;47.03;21.90;;;;;;;;;;4947921;28;20050;-61
2021/11/05 02:08:19;;;;;;;48.55;21.88;;;;;;;;;;4948532;28;20458;-60
2021/11/05 02:10:45;;;;;;;58.45;24.65;;;;;;;;;;4946442;28;20035;-60
2021/11/05 02:13:11;;;;;;;58.38;25.15;;;;;;;;;;4946377;29;20303;-60
2021/11/05 02:15:36;;;;;;;54.10;22.27;;;;;;;;;;4940135;28;20095;-61
2021/11/05 02:18:02;;;;;;;51.25;22.52;;;;;;;;;;4940551;28;20035;-62
2021/11/05 02:20:28;;;;;;;49.40;22.48;;;;;;;;;;4945990;28;20119;-61
2021/11/05 02:22:53;;;;;;;51.67;24.20;;;;;;;;;;4946019;28;20023;-60
2021/11/05 02:25:19;;;;;;;51.50;22.30;;;;;;;;;;4935914;28;20074;-60
2021/11/05 02:27:44;;;;;;;52.42;23.50;;;;;;;;;;4945575;28;20031;-61
2021/11/05 02:30:09;;;;;;;57.25;24.63;;;;;;;;;;4937154;28;20051;-61
2021/11/05 02:32:35;;;;;;;55.70;24.38;;;;;;;;;;4948348;29;20047;-61
2021/11/05 02:35:01;;;;;;;58.70;23.33;;;;;;;;;;4948110;28;20478;-61
2021/11/05 02:37:26;;;;;;;54.10;23.80;;;;;;;;;;4936650;28;20039;-61
2021/11/05 02:39:52;;;;;;;53.50;22.20;;;;;;;;;;4944782;28;20063;-60
2021/11/05 02:42:17;;;;;;;44.35;19.45;;;;;;;;;;4932058;28;20035;-60
2021/11/05 02:44:42;;;;;;;42.40;19.30;;;;;;;;;;4945081;28;20031;-61
2021/11/05 02:47:34;;;;;;;60.70;26.67;;;;;;;;;;4948113;28;20071;-61
2021/11/05 02:50:00;;;;;;;54.35;23.52;;;;;;;;;;4941244;28;20246;-61
2021/11/05 02:52:25;;;;;;;61.17;25.08;;;;;;;;;;4936966;29;20076;-60
2021/11/05 02:54:50;;;;;;;61.58;25.83;;;;;;;;;;4948331;28;20054;-60
2021/11/05 02:57:16;;;;;;;53.55;22.55;;;;;;;;;;4947398;28;20054;-60
2021/11/05 02:59:41;;;;;;;71.07;25.77;;;;;;;;;;4939252;28;20031;-60
2021/11/05 03:02:06;;;;;;;51.72;21.90;;;;;;;;;;4946537;28;20231;-62
2021/11/05 03:04:32;;;;;;;54.15;23.13;;;;;;;;;;4944351;28;20034;-60
2021/11/05 03:06:58;;;;;;;53.17;24.10;;;;;;;;;;4933174;28;20039;-63
2021/11/05 03:09:23;;;;;;;55.50;23.90;;;;;;;;;;4943833;28;20031;-62
2021/11/05 03:11:48;;;;;;;53.60;21.95;;;;;;;;;;4947957;28;20294;-60
2021/11/05 03:14:14;;;;;;;51.90;22.17;;;;;;;;;;4946075;28;20035;-60
2021/11/05 03:16:39;;;;;;;53.58;22.20;;;;;;;;;;4945259;28;20062;-61
2021/11/05 03:19:04;;;;;;;50.38;20.58;;;;;;;;;;4940766;28;20118;-62
2021/11/05 03:21:30;;;;;;;47.55;20.70;;;;;;;;;;4947587;28;20456;-61
2021/11/05 03:23:55;;;;;;;44.22;19.35;;;;;;;;;;4942317;28;20059;-62
2021/11/05 03:26:20;;;;;;;47.85;20.20;;;;;;;;;;4947513;28;20111;-62
2021/11/05 03:28:45;;;;;;;46.10;20.67;;;;;;;;;;4942601;28;20090;-62
2021/11/05 03:31:11;;;;;;;46.00;21.38;;;;;;;;;;4944659;28;20090;-62
2021/11/05 03:33:36;;;;;;;42.90;19.08;;;;;;;;;;4947973;28;20035;-62
2021/11/05 03:36:01;;;;;;;46.60;20.73;;;;;;;;;;4946593;28;20043;-62
2021/11/05 03:38:26;;;;;;;39.58;18.75;;;;;;;;;;4940456;28;20461;-62
2021/11/05 03:40:51;;;;;;;43.45;19.70;;;;;;;;;;4942874;28;20048;-62
2021/11/05 03:43:17;;;;;;;41.90;18.58;;;;;;;;;;4943650;28;20386;-62
2021/11/05 03:45:42;;;;;;;41.90;19.00;;;;;;;;;;4941983;28;20043;-62
2021/11/05 03:48:07;;;;;;;40.65;19.00;;;;;;;;;;4936820;29;20118;-62
2021/11/05 03:50:32;;;;;;;38.70;19.63;;;;;;;;;;4940619;28;20071;-62
2021/11/05 03:52:58;;;;;;;38.08;18.42;;;;;;;;;;4945940;29;20023;-63
2021/11/05 03:55:23;;;;;;;38.30;18.15;;;;;;;;;;4946227;28;20035;-63
2021/11/05 03:57:48;;;;;;;41.85;18.55;;;;;;;;;;4942453;28;20035;-62
2021/11/05 04:00:14;;;;;;;42.15;18.38;;;;;;;;;;4945304;28;20113;-63
2021/11/05 04:02:39;;;;;;;37.33;19.48;;;;;;;;;;4942740;28;20529;-63
2021/11/05 04:05:05;;;;;;;32.22;16.13;;;;;;;;;;4946699;28;20053;-62
2021/11/05 04:07:30;;;;;;;35.58;17.75;;;;;;;;;;4944685;28;20020;-62
2021/11/05 04:09:55;;;;;;;32.17;17.13;;;;;;;;;;4939185;28;20432;-62
2021/11/05 04:12:20;;;;;;;34.65;16.27;;;;;;;;;;4942783;28;20043;-62
2021/11/05 04:14:46;;;;;;;34.00;18.33;;;;;;;;;;4943302;28;20098;-62
2021/11/05 04:17:13;;;;;;;30.48;17.52;;;;;;;;;;4935477;28;20040;-62
2021/11/05 04:19:38;;;;;;;34.58;17.10;;;;;;;;;;4938227;29;20597;-63
2021/11/05 04:22:04;;;;;;;29.35;15.45;;;;;;;;;;4941230;28;20162;-63
2021/11/05 04:24:29;;;;;;;28.05;13.10;;;;;;;;;;4943461;29;20035;-63
2021/11/05 04:26:54;;;;;;;30.48;15.45;;;;;;;;;;4944183;28;20490;-63
2021/11/05 04:29:19;;;;;;;23.58;13.07;;;;;;;;;;4945093;28;20546;-63
2021/11/05 04:31:45;;;;;;;27.02;12.68;;;;;;;;;;4941037;28;20667;-63
2021/11/05 04:34:11;;;;;;;25.85;13.05;;;;;;;;;;4943036;28;20398;-62
2021/11/05 04:36:36;;;;;;;22.10;11.90;;;;;;;;;;4946082;28;20050;-62
2021/11/05 04:39:02;;;;;;;25.70;13.32;;;;;;;;;;4947318;28;20118;-62
2021/11/05 04:41:27;;;;;;;24.48;12.75;;;;;;;;;;4944380;28;20031;-62
2021/11/05 04:43:52;;;;;;;24.67;12.32;;;;;;;;;;4945903;28;20069;-62
2021/11/05 04:46:18;;;;;;;27.10;13.40;;;;;;;;;;4946455;28;20603;-62
2021/11/05 04:48:43;;;;;;;29.63;14.55;;;;;;;;;;4942621;28;20059;-62
2021/11/05 04:51:08;;;;;;;29.98;15.80;;;;;;;;;;4943936;28;20577;-62
2021/11/05 04:53:33;;;;;;;40.05;16.50;;;;;;;;;;4942355;29;20023;-62
2021/11/05 04:55:59;;;;;;;33.00;15.02;;;;;;;;;;4940319;28;20097;-62
2021/11/05 04:58:24;;;;;;;32.88;15.15;;;;;;;;;;4941394;28;20066;-62
2021/11/05 05:00:49;;;;;;;31.80;14.23;;;;;;;;;;4939608;28;20062;-62
2021/11/05 05:03:14;;;;;;;30.13;14.98;;;;;;;;;;4939323;28;20456;-61
2021/11/05 05:05:40;;;;;;;35.47;16.17;;;;;;;;;;4945706;28;20119;-61
2021/11/05 05:08:05;;;;;;;28.98;14.43;;;;;;;;;;4946329;28;20332;-62
2021/11/05 05:10:30;;;;;;;30.45;15.23;;;;;;;;;;4942116;28;20039;-62
2021/11/05 05:12:56;;;;;;;30.67;15.50;;;;;;;;;;4939858;28;20031;-62
2021/11/05 05:15:22;;;;;;;27.77;13.57;;;;;;;;;;4933773;28;20051;-62
2021/11/05 05:17:47;;;;;;;30.35;14.85;;;;;;;;;;4939470;28;20093;-62
2021/11/05 05:20:13;;;;;;;21.98;10.48;;;;;;;;;;4945257;28;20470;-64
2021/11/05 05:22:39;;;;;;;30.92;15.52;;;;;;;;;;4943169;29;20401;-64
2021/11/05 05:25:04;;;;;;;31.20;16.05;;;;;;;;;;4943634;28;20058;-62
2021/11/05 05:27:30;;;;;;;34.17;16.92;;;;;;;;;;4945020;28;20034;-61
2021/11/05 05:29:58;;;;;;;36.58;17.42;;;;;;;;;;4946476;28;20452;-62
2021/11/05 05:32:23;;;;;;;31.70;16.10;;;;;;;;;;4944525;28;20051;-62
2021/11/05 05:34:50;;;;;;;31.20;16.65;;;;;;;;;;4955105;28;20039;-62
2021/11/05 05:37:15;;;;;;;34.55;16.83;;;;;;;;;;4947312;28;20051;-62
2021/11/05 05:39:40;;;;;;;31.27;15.75;;;;;;;;;;4946411;28;20034;-62
2021/11/05 05:42:05;;;;;;;34.30;16.50;;;;;;;;;;4946631;28;20078;-63
2021/11/05 05:44:31;;;;;;;29.25;15.00;;;;;;;;;;4945249;28;20358;-63
2021/11/05 05:46:56;;;;;;;31.25;16.52;;;;;;;;;;4947806;28;20134;-62
2021/11/05 05:49:21;;;;;;;30.58;14.93;;;;;;;;;;4949623;28;20038;-62
2021/11/05 05:51:46;;;;;;;37.15;16.73;;;;;;;;;;4948728;28;20056;-62
2021/11/05 05:54:11;;;;;;;30.02;15.88;;;;;;;;;;4942804;28;20015;-62
2021/11/05 05:56:37;;;;;;;32.45;15.27;;;;;;;;;;4946808;28;20317;-62
2021/11/05 05:59:02;;;;;;;31.17;15.70;;;;;;;;;;4940197;28;20019;-62
2021/11/05 06:01:27;;;;;;;32.97;16.58;;;;;;;;;;4940538;28;20479;-62
2021/11/05 06:03:53;;;;;;;30.73;16.33;;;;;;;;;;4946716;28;20382;-62
2021/11/05 06:06:18;;;;;;;34.47;16.20;;;;;;;;;;4945399;28;20031;-62
2021/11/05 06:08:44;;;;;;;32.63;16.40;;;;;;;;;;4936912;28;20035;-63
2021/11/05 06:11:09;;;;;;;30.83;15.68;;;;;;;;;;4949064;28;20233;-62
2021/11/05 06:13:34;;;;;;;29.83;15.25;;;;;;;;;;4939708;28;20031;-62
2021/11/05 06:16:00;;;;;;;29.48;15.60;;;;;;;;;;4939657;28;20051;-64
2021/11/05 06:18:25;;;;;;;34.78;16.15;;;;;;;;;;4948125;28;20047;-62
2021/11/05 06:20:50;;;;;;;36.67;17.15;;;;;;;;;;4942992;28;20490;-62
2021/11/05 06:23:16;;;;;;;36.17;17.80;;;;;;;;;;4947138;28;20038;-62
2021/11/05 06:25:41;;;;;;;39.15;17.77;;;;;;;;;;4942922;28;20417;-63
2021/11/05 06:28:06;;;;;;;36.78;17.58;;;;;;;;;;4938905;29;20031;-63
2021/11/05 06:30:31;;;;;;;40.95;17.95;;;;;;;;;;4940935;28;20043;-62
2021/11/05 06:32:59;;;;;;;34.60;16.20;;;;;;;;;;4947032;28;20119;-62
2021/11/05 06:35:24;;;;;;;37.35;16.70;;;;;;;;;;4947192;28;20046;-62
2021/11/05 06:37:50;;;;;;;41.63;18.40;;;;;;;;;;4941506;28;20069;-62
2021/11/05 06:40:15;;;;;;;38.28;18.55;;;;;;;;;;4945416;28;20041;-62
2021/11/05 06:42:40;;;;;;;39.83;18.85;;;;;;;;;;4943384;28;20027;-62
2021/11/05 06:45:06;;;;;;;37.35;17.98;;;;;;;;;;4944056;28;20653;-62
2021/11/05 06:47:32;;;;;;;37.55;17.65;;;;;;;;;;4942309;29;20110;-62
2021/11/05 06:49:57;;;;;;;38.33;17.67;;;;;;;;;;4946058;28;20119;-63
2021/11/05 06:52:22;;;;;;;38.80;21.35;;;;;;;;;;4944626;28;20145;-62
2021/11/05 06:54:48;;;;;;;47.25;22.02;;;;;;;;;;4946279;28;20178;-63
2021/11/05 06:57:13;;;;;;;45.95;21.20;;;;;;;;;;4943048;28;20141;-63
2021/11/05 06:59:38;;;;;;;46.22;20.60;;;;;;;;;;4942802;29;20114;-62
2021/11/05 07:02:03;;;;;;;43.35;18.38;;;;;;;;;;4946334;28;20498;-62
2021/11/05 07:04:29;;;;;;;40.47;18.85;;;;;;;;;;4939368;28;20461;-62
2021/11/05 07:06:55;;;;;;;45.45;21.00;;;;;;;;;;4945520;28;20053;-62
2021/11/05 07:09:20;;;;;;;38.38;17.67;;;;;;;;;;4945658;28;20035;-62
2021/11/05 07:11:45;;;;;;;52.15;22.63;;;;;;;;;;4944943;28;20044;-62
2021/11/05 07:14:11;;;;;;;106.95;37.08;;;;;;;;;;4943660;28;20019;-62
2021/11/05 07:16:37;;;;;;;43.00;18.73;;;;;;;;;;4943281;28;20043;-62
2021/11/05 07:19:02;;;;;;;42.40;20.20;;;;;;;;;;4946045;28;20036;-62
2021/11/05 07:21:28;;;;;;;35.78;18.02;;;;;;;;;;4944915;28;20050;-62
2021/11/05 07:24:01;;;;;;;43.47;21.23;;;;;;;;;;4943840;29;20171;-61
2021/11/05 07:26:33;;;;;;;39.70;20.02;;;;;;;;;;4942955;28;20039;-62
2021/11/05 07:28:58;;;;;;;55.45;22.67;;;;;;;;;;4944434;28;20035;-61
2021/11/05 07:31:23;;;;;;;44.88;20.95;;;;;;;;;;4944049;28;20043;-61
2021/11/05 07:33:49;;;;;;;47.75;22.15;;;;;;;;;;4941008;28;20027;-61
2021/11/05 07:36:14;;;;;;;49.25;22.00;;;;;;;;;;4939628;28;20058;-62
2021/11/05 07:38:39;;;;;;;48.15;21.42;;;;;;;;;;4940294;28;20039;-62
2021/11/05 07:41:05;;;;;;;50.25;22.95;;;;;;;;;;4942988;28;20085;-61
2021/11/05 07:43:30;;;;;;;46.65;21.60;;;;;;;;;;4943193;28;20688;-62
2021/11/05 07:45:55;;;;;;;51.38;22.65;;;;;;;;;;4955604;28;20086;-62
2021/11/05 07:48:21;;;;;;;53.03;21.17;;;;;;;;;;4942725;28;20805;-62
2021/11/05 07:50:46;;;;;;;44.80;20.52;;;;;;;;;;4939453;28;20154;-62
2021/11/05 07:53:11;;;;;;;51.25;21.90;;;;;;;;;;4944136;28;20340;-62
2021/11/05 07:55:36;;;;;;;47.80;21.40;;;;;;;;;;4939540;28;20473;-62
2021/11/05 07:58:02;;;;;;;44.55;21.80;;;;;;;;;;4946268;28;20110;-62
2021/11/05 08:00:28;;;;;;;53.30;21.90;;;;;;;;;;4945329;28;20065;-62
2021/11/05 08:02:53;;;;;;;50.28;20.75;;;;;;;;;;4946854;28;20031;-62
2021/11/05 08:05:18;;;;;;;50.33;21.45;;;;;;;;;;4946723;28;20031;-64
2021/11/05 08:07:43;;;;;;;47.97;21.95;;;;;;;;;;4947344;28;20054;-62
2021/11/05 08:10:09;;;;;;;47.03;20.95;;;;;;;;;;4944004;28;20035;-62
2021/11/05 08:12:34;;;;;;;47.40;22.33;;;;;;;;;;4945525;28;20099;-62
2021/11/05 08:14:59;;;;;;;54.72;22.17;;;;;;;;;;4944858;28;20055;-62
2021/11/05 08:17:24;;;;;;;55.05;22.83;;;;;;;;;;4945107;28;20051;-62
2021/11/05 08:19:50;;;;;;;59.20;23.15;;;;;;;;;;4945515;28;20031;-62
2021/11/05 08:22:17;;;;;;;47.10;21.67;;;;;;;;;;4939726;28;20043;-62
2021/11/05 08:24:42;;;;;;;42.38;21.13;;;;;;;;;;4943156;29;20106;-62
2021/11/05 08:27:08;;;;;;;45.53;21.98;;;;;;;;;;4938135;28;20521;-62
2021/11/05 08:29:33;;;;;;;49.05;22.05;;;;;;;;;;4942824;28;20022;-62
2021/11/05 08:31:58;;;;;;;46.60;21.13;;;;;;;;;;4941185;28;20075;-63
2021/11/05 08:34:23;;;;;;;48.08;23.00;;;;;;;;;;4957298;28;20024;-63
2021/11/05 08:36:49;;;;;;;45.90;21.75;;;;;;;;;;4955793;28;20521;-62
2021/11/05 08:39:14;;;;;;;39.65;20.23;;;;;;;;;;4945576;28;20038;-63
2021/11/05 08:41:39;;;;;;;40.03;19.63;;;;;;;;;;4944172;28;20134;-62
2021/11/05 08:44:05;;;;;;;41.97;20.95;;;;;;;;;;4938643;29;20028;-63
2021/11/05 08:46:30;;;;;;;46.22;21.15;;;;;;;;;;4940914;28;20406;-63
2021/11/05 08:48:57;;;;;;;43.80;20.23;;;;;;;;;;4935365;29;20097;-63
2021/11/05 08:51:22;;;;;;;37.38;20.08;;;;;;;;;;4943532;28;20027;-64
2021/11/05 08:53:48;;;;;;;44.35;20.25;;;;;;;;;;4944134;28;20041;-61
2021/11/05 08:56:13;;;;;;;40.95;19.73;;;;;;;;;;4942057;28;20042;-62
2021/11/05 08:58:38;;;;;;;43.70;20.83;;;;;;;;;;4939507;28;20040;-62
2021/11/05 09:01:04;;;;;;;38.47;20.00;;;;;;;;;;4945276;28;20040;-62
2021/11/05 09:03:29;;;;;;;40.55;19.17;;;;;;;;;;4946370;28;20065;-62
2021/11/05 09:05:54;;;;;;;41.92;19.27;;;;;;;;;;4946528;28;20044;-62
2021/11/05 09:08:20;;;;;;;34.13;18.73;;;;;;;;;;4937732;29;20038;-62
2021/11/05 09:10:45;;;;;;;37.03;18.58;;;;;;;;;;4947352;28;20483;-62
2021/11/05 09:13:10;;;;;;;38.83;18.52;;;;;;;;;;4946769;29;20042;-62
2021/11/05 09:15:35;;;;;;;37.53;18.35;;;;;;;;;;4942982;28;20043;-62
2021/11/05 09:18:02;;;;;;;40.15;18.67;;;;;;;;;;4946261;28;20311;-62
2021/11/05 09:20:27;;;;;;;33.65;17.42;;;;;;;;;;4948041;28;20067;-62
2021/11/05 09:22:52;;;;;;;37.08;18.23;;;;;;;;;;4948189;28;20536;-62
2021/11/05 09:25:17;;;;;;;34.47;16.70;;;;;;;;;;4948122;28;20030;-62
2021/11/05 09:27:44;;;;;;;37.33;17.83;;;;;;;;;;4943936;28;20019;-62
2021/11/05 09:30:09;;;;;;;35.55;18.27;;;;;;;;;;4961256;28;20516;-62
2021/11/05 09:32:34;;;;;;;37.00;17.70;;;;;;;;;;4941134;28;20019;-62
2021/11/05 09:35:00;;;;;;;34.40;16.75;;;;;;;;;;4941447;28;20024;-62
2021/11/05 09:37:25;;;;;;;30.25;14.93;;;;;;;;;;4946877;28;20082;-62
2021/11/05 09:39:50;;;;;;;33.40;17.38;;;;;;;;;;4943105;29;20736;-62
2021/11/05 09:42:16;;;;;;;30.40;15.73;;;;;;;;;;4942781;28;20048;-64
2021/11/05 09:44:42;;;;;;;28.50;15.95;;;;;;;;;;4941617;29;20527;-62
2021/11/05 09:47:07;;;;;;;29.20;15.30;;;;;;;;;;4938315;28;20039;-62
2021/11/05 09:49:33;;;;;;;26.30;15.02;;;;;;;;;;4947954;28;20486;-62
2021/11/05 09:51:59;;;;;;;29.15;14.80;;;;;;;;;;4947141;28;20603;-62
2021/11/05 09:54:24;;;;;;;27.40;15.68;;;;;;;;;;4949104;28;20031;-63
2021/11/05 09:56:51;;;;;;;23.60;13.48;;;;;;;;;;4943472;28;20474;-62
2021/11/05 09:59:16;;;;;;;25.85;13.63;;;;;;;;;;4946667;28;20019;-62
2021/11/05 10:01:41;;;;;;;27.83;13.10;;;;;;;;;;4946923;28;20145;-62
2021/11/05 10:04:07;;;;;;;25.80;13.98;;;;;;;;;;4948421;28;20054;-62
2021/11/05 10:06:33;;;;;;;24.30;14.13;;;;;;;;;;4946635;28;20027;-62
2021/11/05 10:08:58;;;;;;;27.13;15.50;;;;;;;;;;4946910;28;20055;-62
2021/11/05 10:11:31;;;;;;;27.52;16.27;;;;;;;;;;4936870;28;20032;-62
2021/11/05 10:13:57;;;;;;;24.48;14.55;;;;;;;;;;4946998;28;20027;-62
2021/11/05 10:16:24;;;;;;;28.15;14.20;;;;;;;;;;4941949;28;20686;-64
2021/11/05 10:18:58;;;;;;;25.55;14.63;;;;;;;;;;4944609;28;20043;-64
2021/11/05 10:21:23;;;;;;;28.02;14.30;;;;;;;;;;4945221;28;20051;-63
2021/11/05 10:23:49;;;;;;;27.67;14.35;;;;;;;;;;4941337;28;20378;-63
2021/11/05 10:26:28;;;;;;;25.30;13.18;;;;;;;;;;4936050;28;20137;-64
2021/11/05 10:28:54;;;;;;;26.10;12.87;;;;;;;;;;4947717;29;20023;-62
2021/11/05 10:31:19;;;;;;;23.45;13.32;;;;;;;;;;4948259;28;20039;-62
2021/11/05 10:33:46;;;;;;;24.00;13.48;;;;;;;;;;4946688;28;20015;-62
2021/11/05 10:36:12;;;;;;;28.98;13.63;;;;;;;;;;4943366;28;20126;-62
2021/11/05 10:38:57;;;;;;;24.48;13.40;;;;;;;;;;4945087;28;20051;-62
2021/11/05 10:41:23;;;;;;;28.73;13.77;;;;;;;;;;4948455;28;20036;-62
2021/11/05 10:43:53;;;;;;;24.20;12.88;;;;;;;;;;4940075;28;20050;-63
2021/11/05 10:46:27;;;;;;;24.77;13.50;;;;;;;;;;4947190;28;20550;-63
2021/11/05 10:48:53;;;;;;;23.08;12.73;;;;;;;;;;4944288;29;20041;-63
2021/11/05 10:51:19;;;;;;;24.83;12.32;;;;;;;;;;4950948;28;20035;-64
2021/11/05 10:53:44;;;;;;;25.42;12.68;;;;;;;;;;4943866;28;20058;-63
2021/11/05 10:56:13;;;;;;;21.75;11.70;;;;;;;;;;4946152;28;20405;-61
2021/11/05 10:58:39;;;;;;;20.85;11.95;;;;;;;;;;4941787;28;20027;-62
2021/11/05 11:01:08;;;;;;;24.40;10.80;;;;;;;;;;4942921;28;20090;-62
2021/11/05 11:03:38;;;;;;;22.42;11.20;;;;;;;;;;4948055;28;20106;-61
2021/11/05 11:06:03;;;;;;;21.77;11.73;;;;;;;;;;4946898;28;20150;-62
2021/11/05 11:08:29;;;;;;;23.75;13.45;;;;;;;;;;4948272;28;20106;-62
2021/11/05 11:10:55;;;;;;;23.48;13.88;;;;;;;;;;4946844;28;20043;-62
2021/11/05 11:13:28;;;;;;;26.65;13.75;;;;;;;;;;4954721;28;20031;-62
2021/11/05 11:15:53;;;;;;;24.83;13.57;;;;;;;;;;4937704;28;20055;-62
2021/11/05 11:18:18;;;;;;;24.10;13.68;;;;;;;;;;4939148;28;20038;-62
2021/11/05 11:20:44;;;;;;;25.20;13.52;;;;;;;;;;4941289;28;20031;-62
2021/11/05 11:23:09;;;;;;;20.88;11.30;;;;;;;;;;4945947;28;20070;-62
2021/11/05 11:25:35;;;;;;;20.38;12.00;;;;;;;;;;4942195;28;20042;-62
2021/11/05 11:28:00;;;;;;;26.98;11.57;;;;;;;;;;4942102;28;20079;-62
2021/11/05 11:30:26;;;;;;;20.35;10.60;;;;;;;;;;4936772;28;20521;-62
2021/11/05 11:32:51;;;;;;;20.75;11.10;;;;;;;;;;4946141;28;20108;-62
2021/11/05 11:35:17;;;;;;;18.10;9.20;;;;;;;;;;4940479;28;20782;-62
2021/11/05 11:37:42;;;;;;;20.30;11.55;;;;;;;;;;4945383;28;20046;-62
2021/11/05 11:40:07;;;;;;;21.20;10.10;;;;;;;;;;4938509;28;20023;-62
2021/11/05 11:42:33;;;;;;;18.25;10.30;;;;;;;;;;4943215;28;20176;-62
2021/11/05 11:44:58;;;;;;;22.10;10.25;;;;;;;;;;4941820;29;20027;-62
2021/11/05 11:47:23;;;;;;;21.00;10.80;;;;;;;;;;4933563;29;20376;-62
2021/11/05 11:49:49;;;;;;;20.35;9.95;;;;;;;;;;4939191;29;20012;-62
2021/11/05 11:52:14;;;;;;;14.85;9.45;;;;;;;;;;4934961;28;20035;-62
2021/11/05 11:54:39;;;;;;;16.13;9.52;;;;;;;;;;4946565;29;20041;-62
2021/11/05 11:57:12;;;;;;;18.85;9.02;;;;;;;;;;4936648;28;20622;-62
2021/11/05 11:59:38;;;;;;;15.70;9.48;;;;;;;;;;4942449;28;20399;-62
2021/11/05 12:02:10;;;;;;;17.90;9.07;;;;;;;;;;4941642;28;20124;-62
2021/11/05 12:04:35;;;;;;;17.45;9.20;;;;;;;;;;4941429;29;20375;-62
2021/11/05 12:07:01;;;;;;;15.95;9.27;;;;;;;;;;4944391;28;20111;-62
2021/11/05 12:09:26;;;;;;;14.70;8.02;;;;;;;;;;4945469;29;20133;-63
2021/11/05 12:12:11;;;;;;;16.60;8.57;;;;;;;;;;4947080;28;20133;-61
2021/11/05 12:14:55;;;;;;;15.98;8.32;;;;;;;;;;4946712;28;20508;-61
2021/11/05 12:17:21;;;;;;;15.68;8.77;;;;;;;;;;4952958;28;20257;-61
2021/11/05 12:19:46;;;;;;;15.38;9.00;;;;;;;;;;4946709;28;20038;-62
2021/11/05 12:22:13;;;;;;;15.55;8.73;;;;;;;;;;4940068;28;20493;-62
2021/11/05 12:24:39;;;;;;;14.63;8.77;;;;;;;;;;4946916;28;20023;-62
2021/11/05 12:27:07;;;;;;;14.38;8.50;;;;;;;;;;4941996;28;20559;-63
2021/11/05 12:29:33;;;;;;;17.38;9.05;;;;;;;;;;4937703;29;20024;-63
2021/11/05 12:32:02;;;;;;;10.85;7.43;;;;;;;;;;4939304;28;20395;-63
2021/11/05 12:34:35;;;;;;;16.65;8.32;;;;;;;;;;4944881;28;20367;-62
2021/11/05 12:37:00;;;;;;;17.88;8.38;;;;;;;;;;4938466;28;20864;-62
2021/11/05 12:39:29;;;;;;;15.23;7.90;;;;;;;;;;4937118;28;20056;-62
2021/11/05 12:42:00;;;;;;;11.57;7.50;;;;;;;;;;4940071;28;20061;-62
2021/11/05 12:44:28;;;;;;;12.48;7.97;;;;;;;;;;4953980;28;20066;-62
2021/11/05 12:46:53;;;;;;;14.57;7.82;;;;;;;;;;4943083;28;20610;-62
2021/11/05 12:49:19;;;;;;;15.43;8.18;;;;;;;;;;4941827;28;20038;-62
2021/11/05 12:51:45;;;;;;;15.77;7.45;;;;;;;;;;4937454;28;20598;-62
2021/11/05 12:54:20;;;;;;;15.50;7.10;;;;;;;;;;4940434;28;20371;-62
2021/11/05 12:56:49;;;;;;;17.98;7.70;;;;;;;;;;4943157;28;20331;-62
2021/11/05 12:59:18;;;;;;;13.75;7.28;;;;;;;;;;4937856;28;20023;-62
2021/11/05 13:01:51;;;;;;;13.38;7.00;;;;;;;;;;4944417;28;20039;-63
2021/11/05 13:04:16;;;;;;;12.77;7.05;;;;;;;;;;4941252;28;20366;-63
2021/11/05 13:07:09;;;;;;;17.02;6.68;;;;;;;;;;4945385;28;20043;-63
2021/11/05 13:09:40;;;;;;;10.20;6.10;;;;;;;;;;4934576;28;20730;-62
2021/11/05 13:12:06;;;;;;;11.75;6.50;;;;;;;;;;4940213;28;20482;-62
2021/11/05 13:14:35;;;;;;;12.02;7.00;;;;;;;;;;4938982;28;20073;-62
2021/11/05 13:17:00;;;;;;;12.50;6.55;;;;;;;;;;4945615;28;20322;-62
2021/11/05 13:19:26;;;;;;;12.50;6.45;;;;;;;;;;4944302;28;20478;-62
2021/11/05 13:21:59;;;;;;;12.57;6.05;;;;;;;;;;4937843;28;20031;-62
2021/11/05 13:24:24;;;;;;;10.10;5.72;;;;;;;;;;4939413;28;20034;-62
2021/11/05 13:26:52;;;;;;;12.27;5.20;;;;;;;;;;4940537;28;20039;-62
2021/11/05 13:29:27;;;;;;;12.65;5.82;;;;;;;;;;4945755;28;20077;-62
2021/11/05 13:31:55;;;;;;;11.40;5.82;;;;;;;;;;4940344;28;20051;-62
2021/11/05 13:34:20;;;;;;;10.75;6.10;;;;;;;;;;4939512;28;20031;-62
2021/11/05 13:36:45;;;;;;;10.23;6.07;;;;;;;;;;4940622;28;20039;-63
2021/11/05 13:39:13;;;;;;;11.10;6.43;;;;;;;;;;4942315;28;20058;-62
2021/11/05 13:41:38;;;;;;;8.05;5.38;;;;;;;;;;4938217;28;20035;-62
2021/11/05 13:44:04;;;;;;;14.45;5.20;;;;;;;;;;4944524;28;20039;-62
2021/11/05 13:46:29;;;;;;;9.77;5.45;;;;;;;;;;4945365;28;20166;-62
2021/11/05 13:48:55;;;;;;;11.38;5.70;;;;;;;;;;4945171;28;20131;-62
2021/11/05 13:51:22;;;;;;;8.82;4.97;;;;;;;;;;4944561;28;20601;-62
2021/11/05 13:54:06;;;;;;;10.52;4.80;;;;;;;;;;4946855;28;20024;-62
2021/11/05 13:56:38;;;;;;;9.85;5.13;;;;;;;;;;4947887;28;20043;-62
2021/11/05 13:59:04;;;;;;;11.63;5.03;;;;;;;;;;4938398;28;20031;-62
2021/11/05 14:01:30;;;;;;;9.88;4.80;;;;;;;;;;4946337;28;20038;-62
2021/11/05 14:03:56;;;;;;;14.85;5.07;;;;;;;;;;4949036;28;20178;-62
2021/11/05 14:06:21;;;;;;;10.48;5.15;;;;;;;;;;4948203;28;20067;-62
2021/11/05 14:08:48;;;;;;;7.03;4.57;;;;;;;;;;4948521;28;20027;-64
2021/11/05 14:11:13;;;;;;;7.22;4.55;;;;;;;;;;4943558;28;20099;-62
2021/11/05 14:13:39;;;;;;;12.32;5.85;;;;;;;;;;4944362;28;20142;-62